Terminal Aerodrome Forecast
Issued by NWS

Current Version | Previous Version | Text Only | Print | Product List | Glossary On
Versions: 1 2 3 4 5 6 7 8 9 10 11 12 13 14 15 16 17 18 19 20 21
000
FTUS46 KLOX 290540
TAFSBP
TAF
KSBP 290540Z 2906/3006 VRB03KT P6SM OVC012
     FM290900 VRB03KT 4SM BR OVC007
     FM291500 VRB03KT 6SM BR BKN010
     FM291800 22008KT P6SM SKC
     FM300300 VRB03KT P6SM BKN015=

USA.gov is the U.S. government's official web portal to all federal, state and local government web resources and services.